Time;durP1;ratioP1;P1;durP2;ratioP2;P2;SDS_P1;SDS_P2;PMS_P1;PMS_P2;Temp;Humidity;BMP_temperature;BMP_pressure;BME280_temperature;BME280_humidity;BME280_pressure;Samples;Min_cycle;Max_cycle;Signal;HPM_P1;HPM_P2
2022/12/18 00:01:20;;;;;;;;;;;1.80;99.90;;;;;;5142369;27;20332;-46
2022/12/18 00:03:46;;;;;;;;;;;1.80;99.90;;;;;;5142704;27;19908;-46
2022/12/18 00:06:13;;;;;;;;;;;1.70;99.90;;;;;;5142525;27;19915;-47
2022/12/18 00:08:39;;;;;;;;;;;1.70;99.90;;;;;;5142359;27;20324;-47
2022/12/18 00:11:06;;;;;;;;;;;1.70;99.90;;;;;;5142745;27;19964;-47
2022/12/18 00:13:31;;;;;;;;;;;1.60;99.90;;;;;;5142524;27;19911;-47
2022/12/18 00:16:01;;;;;;;;;;;1.60;99.90;;;;;;5142541;27;19915;-47
2022/12/18 00:18:27;;;;;;;;;;;1.60;99.90;;;;;;5142477;27;19907;-48
2022/12/18 00:20:53;;;;;;;;;;;1.50;99.90;;;;;;5142243;27;20009;-48
2022/12/18 00:23:18;;;;;;;;;;;1.60;99.90;;;;;;5142675;27;19908;-46
2022/12/18 00:25:44;;;;;;;;;;;1.60;99.90;;;;;;5142162;27;19934;-47
2022/12/18 00:28:09;;;;;;;;;;;1.50;99.90;;;;;;5142574;27;19957;-46
2022/12/18 00:30:35;;;;;;;;;;;1.60;99.90;;;;;;5142060;27;19908;-46
2022/12/18 00:33:00;;;;;;;;;;;1.60;99.90;;;;;;5141772;27;19914;-46
2022/12/18 00:35:26;;;;;;;;;;;1.60;99.90;;;;;;5142301;27;19912;-46
2022/12/18 00:37:52;;;;;;;;;;;1.60;99.90;;;;;;5142156;27;20292;-46
2022/12/18 00:40:17;;;;;;;;;;;1.60;99.90;;;;;;5141870;27;19991;-46
2022/12/18 00:42:55;;;;;;;;;;;1.60;99.90;;;;;;5142071;27;20407;-46
2022/12/18 00:45:25;;;;;;;;;;;1.60;99.90;;;;;;5141980;27;19908;-48
2022/12/18 00:47:50;;;;;;;;;;;1.60;99.90;;;;;;5140434;27;19911;-46
2022/12/18 00:50:16;;;;;;;;;;;1.70;99.90;;;;;;5141694;27;19915;-47
2022/12/18 00:52:42;;;;;;;;;;;1.70;99.90;;;;;;5141772;27;19954;-47
2022/12/18 00:55:08;;;;;;;;;;;1.70;99.90;;;;;;5141314;27;19937;-47
2022/12/18 00:57:33;;;;;;;;;;;1.70;99.90;;;;;;5141526;27;19911;-47
2022/12/18 00:59:59;;;;;;;;;;;1.70;99.90;;;;;;5141564;27;20401;-46
2022/12/18 01:02:25;;;;;;;;;;;1.70;99.90;;;;;;5141422;27;19911;-48
2022/12/18 01:04:50;;;;;;;;;;;1.70;99.90;;;;;;5141363;27;20006;-46
2022/12/18 01:07:16;;;;;;;;;;;1.70;99.90;;;;;;5122554;27;19998;-46
2022/12/18 01:09:41;;;;;;;;;;;1.80;99.90;;;;;;5141088;27;19914;-46
2022/12/18 01:12:07;;;;;;;;;;;1.80;99.90;;;;;;5141306;27;19914;-46
2022/12/18 01:14:33;;;;;;;;;;;1.80;99.90;;;;;;5140966;27;19964;-48
2022/12/18 01:16:58;;;;;;;;;;;1.90;99.90;;;;;;5141369;27;20451;-47
2022/12/18 01:19:24;;;;;;;;;;;1.90;99.90;;;;;;5141343;27;19907;-46
2022/12/18 01:21:49;;;;;;;;;;;1.90;99.90;;;;;;5141016;27;19911;-47
2022/12/18 01:24:15;;;;;;;;;;;1.90;99.90;;;;;;5141337;27;20270;-46
2022/12/18 01:26:41;;;;;;;;;;;1.90;99.90;;;;;;5141164;27;19907;-47
2022/12/18 01:29:06;;;;;;;;;;;1.90;99.90;;;;;;5141090;27;19939;-47
2022/12/18 01:31:33;;;;;;;;;;;1.90;99.90;;;;;;5140880;27;19911;-46
2022/12/18 01:34:00;;;;;;;;;;;1.90;99.90;;;;;;5141038;27;19950;-46
2022/12/18 01:36:28;;;;;;;;;;;1.90;99.90;;;;;;5140821;27;19911;-47
2022/12/18 01:38:54;;;;;;;;;;;1.90;99.90;;;;;;5140863;27;19907;-46
2022/12/18 01:41:22;;;;;;;;;;;1.90;99.90;;;;;;5141028;27;19907;-46
2022/12/18 01:43:49;;;;;;;;;;;1.90;99.90;;;;;;5140756;27;19908;-47
2022/12/18 01:46:16;;;;;;;;;;;1.90;99.90;;;;;;5140777;27;19998;-47
2022/12/18 01:48:42;;;;;;;;;;;2.00;99.90;;;;;;5140480;27;20290;-46
2022/12/18 01:51:09;;;;;;;;;;;2.00;99.90;;;;;;5140728;27;19915;-47
2022/12/18 01:53:36;;;;;;;;;;;2.00;99.90;;;;;;5140434;27;20464;-49
2022/12/18 01:56:01;;;;;;;;;;;2.00;99.90;;;;;;5140339;27;19911;-47
2022/12/18 01:58:35;;;;;;;;;;;2.00;99.90;;;;;;5140109;27;19918;-47
2022/12/18 02:01:01;;;;;;;;;;;1.90;99.90;;;;;;5139871;27;19919;-48
2022/12/18 02:03:26;;;;;;;;;;;1.90;99.90;;;;;;5140207;27;19999;-46
2022/12/18 02:06:03;;;;;;;;;;;1.90;99.90;;;;;;5140637;27;19915;-47
2022/12/18 02:08:33;;;;;;;;;;;2.00;99.90;;;;;;5140133;27;19942;-47
2022/12/18 02:10:59;;;;;;;;;;;2.00;99.90;;;;;;5140747;27;20289;-50
2022/12/18 02:13:37;;;;;;;;;;;2.00;99.90;;;;;;5140019;27;19911;-46
2022/12/18 02:16:08;;;;;;;;;;;2.10;99.90;;;;;;5140085;27;19993;-46
2022/12/18 02:18:36;;;;;;;;;;;2.10;99.90;;;;;;5139954;27;20270;-48
2022/12/18 02:21:20;;;;;;;;;;;2.10;99.90;;;;;;5139877;27;19907;-48
2022/12/18 02:23:49;;;;;;;;;;;2.10;99.90;;;;;;5140032;27;19998;-46
2022/12/18 02:26:17;;;;;;;;;;;2.20;99.90;;;;;;5139579;27;19933;-46
2022/12/18 02:28:46;;;;;;;;;;;2.20;99.90;;;;;;5140167;27;20388;-47
2022/12/18 02:31:13;;;;;;;;;;;2.20;99.90;;;;;;5121086;27;19957;-47
2022/12/18 02:33:40;;;;;;;;;;;2.20;99.90;;;;;;5139782;27;19915;-46
2022/12/18 02:36:06;;;;;;;;;;;2.30;99.90;;;;;;5139780;27;19997;-46
2022/12/18 02:38:33;;;;;;;;;;;2.30;99.90;;;;;;5139739;27;19950;-48
2022/12/18 02:40:59;;;;;;;;;;;2.40;99.90;;;;;;5139636;27;19907;-48
2022/12/18 02:43:25;;;;;;;;;;;2.40;99.90;;;;;;5139393;27;19912;-47
2022/12/18 02:45:53;;;;;;;;;;;2.40;99.90;;;;;;5139701;27;19908;-46
2022/12/18 02:48:22;;;;;;;;;;;2.40;99.90;;;;;;5139289;27;19907;-46
2022/12/18 02:51:10;;;;;;;;;;;2.50;99.90;;;;;;5139684;27;20287;-46
2022/12/18 02:53:39;;;;;;;;;;;2.40;99.90;;;;;;5125613;27;19907;-47
2022/12/18 02:56:12;;;;;;;;;;;2.50;99.90;;;;;;5139530;27;20285;-47
2022/12/18 02:58:38;;;;;;;;;;;2.50;99.90;;;;;;5139372;27;20007;-46
2022/12/18 03:01:09;;;;;;;;;;;2.40;99.90;;;;;;5138932;27;19966;-47
2022/12/18 03:03:38;;;;;;;;;;;2.50;99.90;;;;;;5139311;27;20374;-48
2022/12/18 03:06:09;;;;;;;;;;;2.50;99.90;;;;;;5139068;27;19907;-47
2022/12/18 03:08:39;;;;;;;;;;;2.60;99.90;;;;;;5139140;27;19915;-48
2022/12/18 03:11:07;;;;;;;;;;;2.60;99.90;;;;;;5138527;27;19908;-46
2022/12/18 03:13:41;;;;;;;;;;;2.60;99.90;;;;;;5139026;27;19908;-47
2022/12/18 03:16:09;;;;;;;;;;;2.60;99.90;;;;;;5139301;27;19942;-48
2022/12/18 03:18:37;;;;;;;;;;;2.70;99.90;;;;;;5120486;27;19908;-46
2022/12/18 03:21:05;;;;;;;;;;;2.70;99.90;;;;;;5138887;27;19954;-47
2022/12/18 03:23:33;;;;;;;;;;;2.80;99.90;;;;;;5139040;27;19907;-46
2022/12/18 03:26:01;;;;;;;;;;;2.80;99.90;;;;;;5120390;28;19914;-49
2022/12/18 03:28:27;;;;;;;;;;;2.80;99.90;;;;;;5138824;28;19930;-46
2022/12/18 03:30:57;;;;;;;;;;;2.90;99.90;;;;;;5138831;28;19914;-49
2022/12/18 03:33:28;;;;;;;;;;;2.90;99.90;;;;;;5138522;28;19989;-49
2022/12/18 03:35:54;;;;;;;;;;;2.90;99.90;;;;;;5138664;28;19912;-46
2022/12/18 03:38:20;;;;;;;;;;;2.90;99.90;;;;;;5138931;28;19907;-46
2022/12/18 03:41:04;;;;;;;;;;;2.90;99.90;;;;;;5139062;28;20006;-46
2022/12/18 03:43:56;;;;;;;;;;;2.90;99.90;;;;;;5139123;28;19912;-47
2022/12/18 03:46:26;;;;;;;;;;;2.80;99.90;;;;;;5099422;28;20269;-47
2022/12/18 03:48:54;;;;;;;;;;;2.80;99.90;;;;;;5138704;28;19931;-47
2022/12/18 03:51:22;;;;;;;;;;;2.80;99.90;;;;;;5138853;28;19946;-48
2022/12/18 03:53:53;;;;;;;;;;;2.90;99.90;;;;;;5138816;28;19942;-46
2022/12/18 03:56:21;;;;;;;;;;;2.80;99.90;;;;;;5138532;28;20006;-46
2022/12/18 03:58:48;;;;;;;;;;;2.90;99.90;;;;;;5138589;28;19907;-46
2022/12/18 04:01:16;;;;;;;;;;;2.90;99.90;;;;;;5138543;28;19911;-48
2022/12/18 04:03:42;;;;;;;;;;;2.80;99.90;;;;;;5138544;28;19914;-46
2022/12/18 04:06:08;;;;;;;;;;;2.80;99.90;;;;;;5138960;28;19911;-47
2022/12/18 04:08:34;;;;;;;;;;;2.80;99.90;;;;;;5120191;28;19956;-47
2022/12/18 04:11:00;;;;;;;;;;;2.90;99.90;;;;;;5138358;28;19930;-47
2022/12/18 04:13:31;;;;;;;;;;;2.90;99.90;;;;;;5138737;28;20293;-46
2022/12/18 04:15:57;;;;;;;;;;;3.00;99.90;;;;;;5138379;28;19959;-46
2022/12/18 04:18:23;;;;;;;;;;;3.00;99.90;;;;;;5138569;28;19908;-48
2022/12/18 04:20:48;;;;;;;;;;;3.00;99.90;;;;;;5138912;27;19908;-46
2022/12/18 04:23:14;;;;;;;;;;;3.10;99.90;;;;;;5142410;27;19911;-47
2022/12/18 04:25:39;;;;;;;;;;;3.20;99.90;;;;;;5142665;27;20358;-47
2022/12/18 04:28:05;;;;;;;;;;;3.20;99.90;;;;;;5142118;27;19950;-46
2022/12/18 04:30:31;;;;;;;;;;;3.20;99.90;;;;;;5142356;27;19908;-47
2022/12/18 04:32:56;;;;;;;;;;;3.30;99.90;;;;;;5142027;27;20019;-47
2022/12/18 04:35:22;;;;;;;;;;;3.30;99.90;;;;;;5142193;27;19911;-47
2022/12/18 04:37:47;;;;;;;;;;;3.30;99.90;;;;;;5141888;27;20405;-46
2022/12/18 04:40:13;;;;;;;;;;;3.30;99.90;;;;;;5142108;27;19998;-46
2022/12/18 04:42:39;;;;;;;;;;;3.30;99.90;;;;;;5123282;27;19955;-48
2022/12/18 04:45:05;;;;;;;;;;;3.40;99.90;;;;;;5142253;27;19914;-46
2022/12/18 04:47:30;;;;;;;;;;;3.30;99.90;;;;;;5141721;27;19908;-47
2022/12/18 04:49:56;;;;;;;;;;;3.40;99.90;;;;;;5141751;27;19922;-46
2022/12/18 04:52:22;;;;;;;;;;;3.40;99.90;;;;;;5141854;27;19952;-47
2022/12/18 04:54:47;;;;;;;;;;;3.40;99.90;;;;;;5141920;27;20349;-46
2022/12/18 04:57:13;;;;;;;;;;;3.40;99.90;;;;;;5141568;27;19908;-47
2022/12/18 04:59:38;;;;;;;;;;;3.40;99.90;;;;;;5141484;27;19963;-46
2022/12/18 05:02:04;;;;;;;;;;;3.40;99.90;;;;;;5141421;27;20458;-46
2022/12/18 05:04:30;;;;;;;;;;;3.40;99.90;;;;;;5141987;27;20346;-46
2022/12/18 05:06:55;;;;;;;;;;;3.40;99.90;;;;;;5141349;27;20422;-46
2022/12/18 05:09:21;;;;;;;;;;;3.50;99.90;;;;;;5141570;27;19960;-47
2022/12/18 05:11:46;;;;;;;;;;;3.50;99.90;;;;;;5141260;27;19908;-46
2022/12/18 05:14:12;;;;;;;;;;;3.60;99.90;;;;;;5141713;27;20279;-46
2022/12/18 05:16:38;;;;;;;;;;;3.60;99.90;;;;;;5141088;27;19915;-46
2022/12/18 05:19:03;;;;;;;;;;;3.60;99.90;;;;;;5141174;27;19914;-46
2022/12/18 05:21:29;;;;;;;;;;;3.60;99.90;;;;;;5141231;27;19998;-48
2022/12/18 05:23:55;;;;;;;;;;;3.60;99.90;;;;;;5141453;27;19918;-47
2022/12/18 05:26:20;;;;;;;;;;;3.60;99.90;;;;;;5141020;27;19946;-47
2022/12/18 05:28:46;;;;;;;;;;;3.70;99.90;;;;;;5141317;27;19908;-46
2022/12/18 05:31:12;;;;;;;;;;;3.70;99.90;;;;;;5141255;27;19908;-46
2022/12/18 05:33:37;;;;;;;;;;;3.70;99.90;;;;;;5140235;27;19915;-47
2022/12/18 05:36:04;;;;;;;;;;;3.70;99.90;;;;;;5140962;27;20379;-46
2022/12/18 05:38:31;;;;;;;;;;;3.80;99.90;;;;;;5140752;27;19990;-46
2022/12/18 05:40:57;;;;;;;;;;;3.80;99.90;;;;;;5140879;27;19928;-47
2022/12/18 05:43:23;;;;;;;;;;;3.80;99.90;;;;;;5140672;27;20027;-47
2022/12/18 05:45:49;;;;;;;;;;;3.90;99.90;;;;;;5140757;27;19956;-48
2022/12/18 05:48:15;;;;;;;;;;;3.90;99.90;;;;;;5140720;27;19911;-46
2022/12/18 05:50:42;;;;;;;;;;;4.00;99.90;;;;;;5140528;27;19907;-46
2022/12/18 05:53:07;;;;;;;;;;;4.00;99.90;;;;;;5121997;27;19992;-48
2022/12/18 05:55:34;;;;;;;;;;;4.10;99.90;;;;;;5140807;27;19912;-47
2022/12/18 05:58:00;;;;;;;;;;;4.10;99.90;;;;;;5140525;27;19994;-48
2022/12/18 06:00:25;;;;;;;;;;;4.20;99.90;;;;;;5140039;27;20032;-47
2022/12/18 06:02:51;;;;;;;;;;;4.30;99.90;;;;;;5140258;27;19908;-47
2022/12/18 06:05:17;;;;;;;;;;;4.40;99.90;;;;;;5122059;27;19921;-48
2022/12/18 06:07:42;;;;;;;;;;;4.50;99.90;;;;;;5140686;27;19907;-46
2022/12/18 06:10:08;;;;;;;;;;;4.50;99.90;;;;;;5140311;27;19956;-46
2022/12/18 06:12:33;;;;;;;;;;;4.60;99.90;;;;;;5140286;27;20375;-47
2022/12/18 06:15:00;;;;;;;;;;;4.70;99.90;;;;;;5139974;27;20018;-46
2022/12/18 06:17:32;;;;;;;;;;;4.80;99.90;;;;;;5140165;27;19912;-46
2022/12/18 06:19:58;;;;;;;;;;;4.80;99.90;;;;;;5139918;27;20355;-46
2022/12/18 06:22:23;;;;;;;;;;;4.90;99.90;;;;;;5140058;27;19931;-47
2022/12/18 06:24:49;;;;;;;;;;;5.00;99.90;;;;;;5140031;27;19952;-47
2022/12/18 06:27:15;;;;;;;;;;;5.00;99.90;;;;;;5140032;27;19915;-49
2022/12/18 06:29:40;;;;;;;;;;;5.00;99.90;;;;;;5139463;27;20494;-46
2022/12/18 06:32:06;;;;;;;;;;;5.10;99.90;;;;;;5140172;27;19907;-46
2022/12/18 06:34:32;;;;;;;;;;;5.20;99.90;;;;;;5139551;27;19935;-46
2022/12/18 06:36:58;;;;;;;;;;;5.30;99.90;;;;;;5139830;27;19914;-46
2022/12/18 06:39:24;;;;;;;;;;;5.50;99.90;;;;;;5121104;27;19908;-47
2022/12/18 06:41:50;;;;;;;;;;;5.60;99.90;;;;;;5139558;27;19954;-47
2022/12/18 06:44:15;;;;;;;;;;;5.70;99.90;;;;;;5139688;27;20002;-46
2022/12/18 06:46:41;;;;;;;;;;;5.70;99.90;;;;;;5139652;27;19994;-46
2022/12/18 06:49:08;;;;;;;;;;;5.80;99.90;;;;;;5139579;27;19914;-47
2022/12/18 06:51:34;;;;;;;;;;;5.80;99.90;;;;;;5139415;27;19914;-46
2022/12/18 06:54:00;;;;;;;;;;;5.80;99.90;;;;;;5139510;27;20366;-46
2022/12/18 06:56:25;;;;;;;;;;;5.80;99.90;;;;;;5139392;27;20382;-47
2022/12/18 06:58:51;;;;;;;;;;;5.80;99.90;;;;;;5139093;27;19908;-47
2022/12/18 07:01:17;;;;;;;;;;;5.90;99.90;;;;;;5139666;27;20427;-47
2022/12/18 07:03:42;;;;;;;;;;;6.00;99.90;;;;;;5139197;27;19927;-47
2022/12/18 07:06:15;;;;;;;;;;;6.10;99.90;;;;;;5121093;27;20405;-47
2022/12/18 07:08:41;;;;;;;;;;;6.20;99.90;;;;;;5139049;27;19930;-49
2022/12/18 07:11:07;;;;;;;;;;;6.30;99.90;;;;;;5139349;27;19907;-49
2022/12/18 07:13:32;;;;;;;;;;;6.40;99.90;;;;;;5138998;27;20320;-47
2022/12/18 07:16:10;;;;;;;;;;;6.50;99.90;;;;;;5139105;27;19920;-47
2022/12/18 07:18:36;;;;;;;;;;;6.60;99.90;;;;;;5139090;27;19907;-47
2022/12/18 07:21:08;;;;;;;;;;;6.70;99.90;;;;;;5139096;27;19907;-47
2022/12/18 07:23:34;;;;;;;;;;;6.90;99.90;;;;;;5138882;27;20489;-47
2022/12/18 07:26:02;;;;;;;;;;;6.90;99.90;;;;;;5139037;28;19911;-48
2022/12/18 07:28:27;;;;;;;;;;;7.00;99.90;;;;;;5138783;28;20270;-47
2022/12/18 07:30:53;;;;;;;;;;;7.10;99.90;;;;;;5138916;28;19907;-48
2022/12/18 07:33:19;;;;;;;;;;;7.20;99.90;;;;;;5138955;28;20367;-48
2022/12/18 07:35:44;;;;;;;;;;;7.20;99.90;;;;;;5138771;28;20019;-49
2022/12/18 07:38:10;;;;;;;;;;;7.20;99.90;;;;;;5138995;28;19907;-47
2022/12/18 07:40:36;;;;;;;;;;;7.20;99.90;;;;;;5138467;28;19908;-48
2022/12/18 07:43:01;;;;;;;;;;;7.30;99.90;;;;;;5138608;28;19945;-47
2022/12/18 07:45:27;;;;;;;;;;;7.50;99.90;;;;;;5138212;28;19914;-50
2022/12/18 07:47:52;;;;;;;;;;;7.60;99.90;;;;;;5138543;28;19908;-47
2022/12/18 07:50:18;;;;;;;;;;;7.50;99.90;;;;;;5138385;28;19911;-48
2022/12/18 07:52:44;;;;;;;;;;;7.50;99.90;;;;;;5138958;28;19914;-50
2022/12/18 07:55:09;;;;;;;;;;;7.50;99.90;;;;;;5138420;27;19912;-50
2022/12/18 07:57:35;;;;;;;;;;;7.60;99.90;;;;;;5142402;27;19912;-50
2022/12/18 08:00:00;;;;;;;;;;;7.60;99.90;;;;;;5142381;27;19920;-52
2022/12/18 08:02:26;;;;;;;;;;;7.70;99.90;;;;;;5142720;27;19907;-48
2022/12/18 08:04:52;;;;;;;;;;;7.70;99.90;;;;;;5142884;27;19914;-48
2022/12/18 08:07:17;;;;;;;;;;;7.80;99.90;;;;;;5142689;27;19908;-53
2022/12/18 08:09:43;;;;;;;;;;;7.80;99.90;;;;;;5142613;27;20366;-53
2022/12/18 08:12:08;;;;;;;;;;;7.80;99.90;;;;;;5142372;27;19914;-50
2022/12/18 08:14:34;;;;;;;;;;;7.80;99.90;;;;;;5142516;27;19907;-49
2022/12/18 08:17:00;;;;;;;;;;;7.90;99.90;;;;;;5142734;27;20357;-49
2022/12/18 08:19:25;;;;;;;;;;;8.00;99.90;;;;;;5142188;27;19968;-50
2022/12/18 08:21:51;;;;;;;;;;;8.00;99.90;;;;;;5142205;27;19907;-48
2022/12/18 08:24:16;;;;;;;;;;;8.10;99.90;;;;;;5142445;27;19914;-51
2022/12/18 08:26:42;;;;;;;;;;;8.10;99.90;;;;;;5142314;27;19943;-50
2022/12/18 08:29:08;;;;;;;;;;;8.10;99.90;;;;;;5142057;27;19907;-51
2022/12/18 08:31:34;;;;;;;;;;;8.10;99.90;;;;;;5141980;27;19914;-49
2022/12/18 08:33:59;;;;;;;;;;;8.10;99.90;;;;;;5142382;27;20262;-50
2022/12/18 08:36:26;;;;;;;;;;;8.10;99.90;;;;;;5141804;27;19922;-49
2022/12/18 08:38:52;;;;;;;;;;;8.10;99.90;;;;;;5141643;27;20040;-52
2022/12/18 08:41:18;;;;;;;;;;;8.10;99.90;;;;;;5142262;27;19948;-53
2022/12/18 08:46:32;;;;;;;;;;;8.10;99.90;;;;;;5142017;27;19914;-48
2022/12/18 08:48:57;;;;;;;;;;;8.30;99.90;;;;;;5141823;27;19960;-53
2022/12/18 08:51:23;;;;;;;;;;;9.10;99.90;;;;;;5141663;27;19907;-51
2022/12/18 08:53:49;;;;;;;;;;;9.70;99.90;;;;;;5141704;27;19959;-51
2022/12/18 08:56:15;;;;;;;;;;;10.10;99.90;;;;;;5141059;27;19923;-52
2022/12/18 08:58:41;;;;;;;;;;;10.30;99.90;;;;;;5141573;27;19914;-54
2022/12/18 09:01:09;;;;;;;;;;;10.50;99.90;;;;;;5141093;27;20413;-54
2022/12/18 09:03:34;;;;;;;;;;;10.60;99.90;;;;;;5141258;27;19908;-52
2022/12/18 09:06:00;;;;;;;;;;;10.70;99.90;;;;;;5141677;27;19914;-48
2022/12/18 09:08:26;;;;;;;;;;;10.80;99.90;;;;;;5140083;27;19907;-53
2022/12/18 09:10:52;;;;;;;;;;;10.80;99.90;;;;;;5141136;27;19914;-49
2022/12/18 09:13:18;;;;;;;;;;;10.90;99.90;;;;;;5141640;27;19907;-50
2022/12/18 09:15:45;;;;;;;;;;;10.90;99.90;;;;;;5141323;27;19951;-50
2022/12/18 09:18:11;;;;;;;;;;;11.00;99.90;;;;;;5141119;27;19942;-51
2022/12/18 09:20:37;;;;;;;;;;;10.90;99.90;;;;;;5141340;27;19915;-49
2022/12/18 09:23:03;;;;;;;;;;;11.00;99.90;;;;;;5122463;27;19912;-53
2022/12/18 09:25:32;;;;;;;;;;;11.00;99.90;;;;;;5141210;27;20022;-54
2022/12/18 09:28:06;;;;;;;;;;;11.00;99.90;;;;;;5122528;27;19911;-52
2022/12/18 09:30:33;;;;;;;;;;;11.00;99.90;;;;;;5140979;27;19915;-50
2022/12/18 09:32:58;;;;;;;;;;;11.00;99.90;;;;;;5141022;27;19919;-50
2022/12/18 09:35:24;;;;;;;;;;;11.10;99.90;;;;;;5141072;27;19911;-52
2022/12/18 09:37:50;;;;;;;;;;;11.20;99.90;;;;;;5141160;27;19907;-48
2022/12/18 09:40:18;;;;;;;;;;;11.20;99.90;;;;;;5140479;27;19907;-53
2022/12/18 09:42:45;;;;;;;;;;;11.20;99.90;;;;;;5140620;27;19978;-54
2022/12/18 09:45:14;;;;;;;;;;;11.30;99.90;;;;;;5141105;27;19907;-47
2022/12/18 09:47:40;;;;;;;;;;;11.30;99.90;;;;;;5140509;27;19929;-47
2022/12/18 09:50:16;;;;;;;;;;;11.40;99.90;;;;;;5140531;27;19912;-51
2022/12/18 09:52:45;;;;;;;;;;;11.40;99.90;;;;;;5140919;27;19912;-51
2022/12/18 09:55:22;;;;;;;;;;;11.40;99.90;;;;;;5140965;27;19912;-51
2022/12/18 09:58:20;;;;;;;;;;;11.50;99.90;;;;;;5140624;27;20052;-52
2022/12/18 10:00:46;;;;;;;;;;;11.50;99.90;;;;;;5074370;28;19920;-49
2022/12/18 10:03:13;;;;;;;;;;;11.20;99.90;;;;;;5119630;28;19914;-48
2022/12/18 10:05:38;;;;;;;;;;;11.50;99.90;;;;;;5119663;28;20385;-53
2022/12/18 10:08:07;;;;;;;;;;;11.50;99.90;;;;;;5119645;28;19908;-50
2022/12/18 10:10:54;;;;;;;;;;;11.50;99.90;;;;;;5119740;28;19908;-52
2022/12/18 10:13:23;;;;;;;;;;;11.50;99.90;;;;;;5119460;28;19912;-50
2022/12/18 10:15:58;;;;;;;;;;;11.60;99.90;;;;;;5119466;28;19916;-53
2022/12/18 10:18:38;;;;;;;;;;;11.60;99.90;;;;;;5119330;28;19930;-52
2022/12/18 10:21:07;;;;;;;;;;;11.60;99.90;;;;;;5118945;28;19908;-49
2022/12/18 10:23:39;;;;;;;;;;;11.50;99.90;;;;;;5119230;28;20446;-50
2022/12/18 10:26:08;;;;;;;;;;;11.50;99.90;;;;;;5119435;28;20247;-50
2022/12/18 10:28:36;;;;;;;;;;;11.60;99.90;;;;;;5119379;28;19908;-51
2022/12/18 10:31:02;;;;;;;;;;;11.50;99.90;;;;;;5119584;28;19969;-52
2022/12/18 10:33:29;;;;;;;;;;;11.60;99.90;;;;;;5117788;28;20366;-47
2022/12/18 10:35:54;;;;;;;;;;;11.60;99.90;;;;;;5119180;28;19912;-51
2022/12/18 10:38:22;;;;;;;;;;;11.60;99.90;;;;;;5119172;28;19907;-51
2022/12/18 10:40:49;;;;;;;;;;;11.60;99.90;;;;;;5119016;28;20082;-50
2022/12/18 10:43:16;;;;;;;;;;;11.60;99.90;;;;;;5119129;28;19908;-52
2022/12/18 10:45:42;;;;;;;;;;;11.50;99.90;;;;;;5097149;28;19931;-50
2022/12/18 10:48:20;;;;;;;;;;;11.50;99.90;;;;;;5098368;28;19908;-49
2022/12/18 10:50:48;;;;;;;;;;;11.50;99.90;;;;;;5098445;28;19915;-50
2022/12/18 10:53:18;;;;;;;;;;;11.40;99.90;;;;;;5098243;28;19935;-52
2022/12/18 10:55:45;;;;;;;;;;;11.40;99.90;;;;;;5098711;28;19924;-50
2022/12/18 10:58:25;;;;;;;;;;;11.40;99.90;;;;;;5098210;28;19908;-53
2022/12/18 11:01:03;;;;;;;;;;;11.40;99.90;;;;;;5115646;28;19916;-53
2022/12/18 11:03:30;;;;;;;;;;;11.40;99.90;;;;;;5118066;28;19954;-50
2022/12/18 11:06:04;;;;;;;;;;;11.30;99.90;;;;;;5116512;28;20445;-53
2022/12/18 11:08:30;;;;;;;;;;;11.30;99.90;;;;;;5117374;28;19908;-49
2022/12/18 11:10:55;;;;;;;;;;;11.30;99.90;;;;;;5118392;28;19962;-53
2022/12/18 11:13:22;;;;;;;;;;;11.20;99.90;;;;;;5118871;28;19908;-53
2022/12/18 11:15:48;;;;;;;;;;;11.20;99.90;;;;;;5100014;28;19964;-53
2022/12/18 11:18:31;;;;;;;;;;;11.20;99.90;;;;;;5118503;28;19916;-51
2022/12/18 11:20:59;;;;;;;;;;;11.20;99.90;;;;;;5118028;28;19914;-51
2022/12/18 11:23:25;;;;;;;;;;;11.10;99.90;;;;;;5118423;28;19915;-52
2022/12/18 11:25:52;;;;;;;;;;;11.10;99.90;;;;;;5118100;28;19912;-51
2022/12/18 11:28:26;;;;;;;;;;;11.10;99.90;;;;;;5118725;28;19915;-55
2022/12/18 11:31:10;;;;;;;;;;;11.00;99.90;;;;;;5116685;28;19907;-51
2022/12/18 11:33:37;;;;;;;;;;;11.00;99.90;;;;;;5118552;28;19912;-52
2022/12/18 11:36:04;;;;;;;;;;;11.00;99.90;;;;;;5118577;28;20006;-55
2022/12/18 11:38:32;;;;;;;;;;;11.00;99.90;;;;;;5118251;28;19908;-54
2022/12/18 11:41:07;;;;;;;;;;;11.10;99.90;;;;;;5118504;28;19907;-55
2022/12/18 11:43:47;;;;;;;;;;;11.10;99.90;;;;;;5118142;28;19930;-50
2022/12/18 11:46:25;;;;;;;;;;;11.10;99.90;;;;;;5117942;28;19943;-54
2022/12/18 11:48:51;;;;;;;;;;;11.10;99.90;;;;;;5117991;28;19975;-54
2022/12/18 11:51:26;;;;;;;;;;;11.10;99.90;;;;;;5118110;28;20421;-53
2022/12/18 11:53:52;;;;;;;;;;;11.10;99.90;;;;;;5118469;28;20034;-56
2022/12/18 11:56:24;;;;;;;;;;;11.10;99.90;;;;;;5099656;28;19924;-55
2022/12/18 11:58:55;;;;;;;;;;;11.20;99.90;;;;;;5117998;28;20275;-56
2022/12/18 12:01:24;;;;;;;;;;;11.20;99.90;;;;;;5118321;28;19912;-56
2022/12/18 12:04:02;;;;;;;;;;;11.20;99.90;;;;;;5118166;28;19911;-54
2022/12/18 12:06:35;;;;;;;;;;;11.20;99.90;;;;;;5117637;28;19908;-55
2022/12/18 12:09:10;;;;;;;;;;;11.20;99.90;;;;;;5118138;28;19908;-56
2022/12/18 12:11:54;;;;;;;;;;;11.30;99.90;;;;;;5117590;28;20366;-54
2022/12/18 12:14:29;;;;;;;;;;;11.30;99.90;;;;;;5099232;28;19934;-55
2022/12/18 12:16:57;;;;;;;;;;;11.40;99.90;;;;;;5118136;28;20003;-55
2022/12/18 12:19:40;;;;;;;;;;;11.40;99.90;;;;;;5117986;28;19907;-50
2022/12/18 12:22:12;;;;;;;;;;;11.40;99.90;;;;;;5117940;28;19957;-56
2022/12/18 12:24:56;;;;;;;;;;;11.40;99.90;;;;;;5117685;28;19965;-50
2022/12/18 12:27:44;;;;;;;;;;;11.40;99.90;;;;;;5117721;28;19908;-54
2022/12/18 12:30:29;;;;;;;;;;;11.50;99.90;;;;;;5117812;28;19950;-53
2022/12/18 12:33:13;;;;;;;;;;;11.50;99.90;;;;;;5117627;28;20404;-55
2022/12/18 12:35:59;;;;;;;;;;;11.50;99.90;;;;;;5117959;28;19912;-56
2022/12/18 12:38:27;;;;;;;;;;;11.50;99.90;;;;;;5106528;28;19914;-56
2022/12/18 12:41:04;;;;;;;;;;;11.60;99.90;;;;;;5117572;28;19908;-55
2022/12/18 12:43:44;;;;;;;;;;;11.60;99.90;;;;;;5120910;28;20002;-56
2022/12/18 12:46:11;;;;;;;;;;;11.60;99.90;;;;;;5121245;28;19908;-54
2022/12/18 12:48:47;;;;;;;;;;;11.60;99.90;;;;;;5121029;28;19911;-57
2022/12/18 12:51:17;;;;;;;;;;;11.70;99.90;;;;;;5102454;28;19968;-56
2022/12/18 12:53:42;;;;;;;;;;;11.70;99.90;;;;;;5121351;28;19931;-55
2022/12/18 12:56:09;;;;;;;;;;;11.70;99.90;;;;;;5121094;28;19912;-55
2022/12/18 12:58:54;;;;;;;;;;;11.70;99.90;;;;;;5121123;28;20058;-57
2022/12/18 13:01:29;;;;;;;;;;;11.70;99.90;;;;;;5120613;28;19922;-55
2022/12/18 13:04:06;;;;;;;;;;;11.70;99.90;;;;;;5121014;28;19922;-56
2022/12/18 13:06:45;;;;;;;;;;;11.70;99.90;;;;;;5120737;28;19986;-54
2022/12/18 13:09:11;;;;;;;;;;;11.70;99.90;;;;;;5120869;28;19908;-58
2022/12/18 13:14:27;;;;;;;;;;;11.70;99.90;;;;;;5120856;28;19915;-57
2022/12/18 13:17:12;;;;;;;;;;;11.70;99.90;;;;;;5120729;28;19915;-57
2022/12/18 13:19:38;;;;;;;;;;;11.70;99.90;;;;;;5120686;28;19908;-56
2022/12/18 13:22:04;;;;;;;;;;;11.60;99.90;;;;;;5120546;28;19915;-55
2022/12/18 13:24:30;;;;;;;;;;;11.60;99.90;;;;;;5120933;28;19908;-54
2022/12/18 13:26:56;;;;;;;;;;;11.60;99.90;;;;;;5120747;28;19924;-57
2022/12/18 13:29:41;;;;;;;;;;;11.50;99.90;;;;;;5120818;28;19907;-57
2022/12/18 13:32:19;;;;;;;;;;;11.60;99.90;;;;;;5120328;28;19908;-57
2022/12/18 13:34:45;;;;;;;;;;;11.50;99.90;;;;;;5120729;28;19915;-56
2022/12/18 13:37:29;;;;;;;;;;;11.50;99.90;;;;;;5120208;28;19908;-54
2022/12/18 13:39:54;;;;;;;;;;;11.50;99.90;;;;;;5120376;28;19908;-56
2022/12/18 13:45:26;;;;;;;;;;;11.50;99.90;;;;;;5119978;28;19954;-52
2022/12/18 13:47:52;;;;;;;;;;;11.50;99.90;;;;;;5120475;28;19907;-54
2022/12/18 13:50:26;;;;;;;;;;;11.50;99.90;;;;;;5120188;28;19908;-53
2022/12/18 13:52:52;;;;;;;;;;;11.50;99.90;;;;;;5120140;28;19934;-55
2022/12/18 13:55:19;;;;;;;;;;;11.50;99.90;;;;;;5119370;28;19919;-55
2022/12/18 13:57:45;;;;;;;;;;;11.40;99.90;;;;;;5101637;28;19976;-53
2022/12/18 14:00:14;;;;;;;;;;;11.50;99.90;;;;;;5119670;28;19915;-57
2022/12/18 14:02:44;;;;;;;;;;;11.40;99.90;;;;;;5119745;28;19908;-55
2022/12/18 14:05:21;;;;;;;;;;;11.50;99.90;;;;;;5119677;28;19915;-56
2022/12/18 14:07:46;;;;;;;;;;;11.50;99.90;;;;;;5120100;28;20409;-57
2022/12/18 14:10:13;;;;;;;;;;;11.50;99.90;;;;;;5119779;28;19908;-58
2022/12/18 14:12:56;;;;;;;;;;;11.50;99.90;;;;;;5119708;28;19908;-55
2022/12/18 14:15:24;;;;;;;;;;;11.50;99.90;;;;;;5118400;28;20406;-58
2022/12/18 14:17:50;;;;;;;;;;;11.40;99.90;;;;;;5119598;28;19930;-55
2022/12/18 14:20:17;;;;;;;;;;;11.40;99.90;;;;;;5119667;28;19937;-55
2022/12/18 14:22:46;;;;;;;;;;;11.40;99.90;;;;;;5119346;28;20330;-55
2022/12/18 14:25:12;;;;;;;;;;;11.40;99.90;;;;;;5119554;28;19907;-57
2022/12/18 14:27:41;;;;;;;;;;;11.30;99.90;;;;;;5119285;28;19915;-56
2022/12/18 14:30:25;;;;;;;;;;;11.30;99.90;;;;;;5118983;28;20332;-54
2022/12/18 14:33:04;;;;;;;;;;;11.30;99.90;;;;;;5119321;28;19908;-57
2022/12/18 14:35:31;;;;;;;;;;;11.30;99.90;;;;;;5118786;28;20414;-54
2022/12/18 14:38:15;;;;;;;;;;;11.30;99.90;;;;;;5100716;28;19908;-56
2022/12/18 14:40:41;;;;;;;;;;;11.40;99.90;;;;;;5119282;28;19954;-58
2022/12/18 14:43:09;;;;;;;;;;;11.30;99.90;;;;;;5118878;28;19907;-56